Terminal Aerodrome Forecast
Issued by NWS

Home | Current Version | Previous Version | Text Only | Print | Product List | Glossary On
Versions: 1 2 3 4 5 6 7 8 9 10 11 12 13 14 15 16 17 18 19 20 21
088
FTUS43 KILX 171009 AAB
TAFCMI
TAF AMD
KCMI 171009Z 1710/1806 20008KT P6SM VCSH SCT008 OVC015
      TEMPO 1710/1712 BKN008
     FM171400 23011KT P6SM VCSH SCT020 BKN040
     FM171500 23012KT P6SM BKN045
     FM172100 24013G21KT P6SM SCT090
     FM180000 26009KT P6SM SCT200=

USA.gov is the U.S. government's official web portal to all federal, state and local government web resources and services.